Time;durP1;ratioP1;P1;durP2;ratioP2;P2;SDS_P1;SDS_P2;PMS_P1;PMS_P2;Temp;Humidity;BMP_temperature;BMP_pressure;BME280_temperature;BME280_humidity;BME280_pressure;Samples;Min_cycle;Max_cycle;Signal;HPM_P1;HPM_P2
2022/10/13 00:00:13;;;;;;;18.63;6.25;;;;;;;;;;1031738;28;20018;-75
2022/10/13 00:00:44;;;;;;;13.80;5.53;;;;;;;;;;1031592;28;21545;-75
2022/10/13 00:01:16;;;;;;;17.33;4.72;;;;;;;;;;1031741;28;20506;-75
2022/10/13 00:01:47;;;;;;;12.38;6.13;;;;;;;;;;1031546;28;20061;-75
2022/10/13 00:02:17;;;;;;;8.82;5.88;;;;;;;;;;1031739;28;20022;-75
2022/10/13 00:02:48;;;;;;;6.25;3.53;;;;;;;;;;1031840;28;20022;-75
2022/10/13 00:03:18;;;;;;;21.33;4.40;;;;;;;;;;1031663;28;20104;-75
2022/10/13 00:03:49;;;;;;;13.93;5.35;;;;;;;;;;1031840;28;20014;-75
2022/10/13 00:04:20;;;;;;;15.10;6.03;;;;;;;;;;1031314;28;20026;-75
2022/10/13 00:04:50;;;;;;;14.13;4.82;;;;;;;;;;1031823;28;20018;-76
2022/10/13 00:05:21;;;;;;;12.02;5.55;;;;;;;;;;1031301;28;20023;-76
2022/10/13 00:05:51;;;;;;;16.20;4.80;;;;;;;;;;1031496;28;20030;-75
2022/10/13 00:06:23;;;;;;;17.65;5.80;;;;;;;;;;1031447;28;20584;-75
2022/10/13 00:06:53;;;;;;;11.98;4.78;;;;;;;;;;1031341;28;20081;-75
2022/10/13 00:07:24;;;;;;;13.07;5.25;;;;;;;;;;1030727;28;20080;-75
2022/10/13 00:07:55;;;;;;;20.88;6.63;;;;;;;;;;1026962;28;20031;-75
2022/10/13 00:08:25;;;;;;;10.65;5.05;;;;;;;;;;1024823;28;20075;-74
2022/10/13 00:08:58;;;;;;;12.60;5.30;;;;;;;;;;1026596;28;20038;-74
2022/10/13 00:09:28;;;;;;;28.35;9.50;;;;;;;;;;1027581;28;20023;-74
2022/10/13 00:09:59;;;;;;;22.00;9.45;;;;;;;;;;1031380;28;20240;-75
2022/10/13 00:10:29;;;;;;;25.92;10.00;;;;;;;;;;1031493;28;20121;-75
2022/10/13 00:11:00;;;;;;;18.98;7.28;;;;;;;;;;1031729;28;20022;-74
2022/10/13 00:11:30;;;;;;;32.33;8.25;;;;;;;;;;1031722;28;20026;-74
2022/10/13 00:12:01;;;;;;;11.35;5.53;;;;;;;;;;1031713;28;20029;-74
2022/10/13 00:12:33;;;;;;;22.02;5.32;;;;;;;;;;1031673;28;20378;-74
2022/10/13 00:13:04;;;;;;;17.45;5.20;;;;;;;;;;1031451;28;20026;-74
2022/10/13 00:13:35;;;;;;;11.65;4.50;;;;;;;;;;1031680;28;20148;-75
2022/10/13 00:14:05;;;;;;;13.70;4.63;;;;;;;;;;1031549;28;20497;-75
2022/10/13 00:14:36;;;;;;;26.25;5.38;;;;;;;;;;1031724;28;20026;-75
2022/10/13 00:15:07;;;;;;;20.38;6.07;;;;;;;;;;1031654;28;20038;-74
2022/10/13 00:15:42;;;;;;;11.52;4.30;;;;;;;;;;1031774;28;20018;-75
2022/10/13 00:16:14;;;;;;;9.65;4.50;;;;;;;;;;1031390;28;20041;-74
2022/10/13 00:16:44;;;;;;;8.48;3.30;;;;;;;;;;1031690;28;20026;-75
2022/10/13 00:17:15;;;;;;;10.32;4.30;;;;;;;;;;1031551;28;20018;-75
2022/10/13 00:17:46;;;;;;;21.10;4.82;;;;;;;;;;1030776;28;20050;-75
2022/10/13 00:18:16;;;;;;;18.38;4.78;;;;;;;;;;1030564;28;20062;-75
2022/10/13 00:18:47;;;;;;;12.40;4.07;;;;;;;;;;1031785;28;20029;-75
2022/10/13 00:19:18;;;;;;;9.80;3.95;;;;;;;;;;1031057;28;20463;-74
2022/10/13 00:19:48;;;;;;;9.45;3.60;;;;;;;;;;1031530;28;20117;-75
2022/10/13 00:20:19;;;;;;;9.43;3.60;;;;;;;;;;1031488;28;20022;-75
2022/10/13 00:20:49;;;;;;;13.15;3.90;;;;;;;;;;1031498;28;20019;-75
2022/10/13 00:21:22;;;;;;;10.45;5.03;;;;;;;;;;1029315;28;21544;-74
2022/10/13 00:21:52;;;;;;;20.63;5.78;;;;;;;;;;1031427;28;20030;-74
2022/10/13 00:22:23;;;;;;;16.30;4.47;;;;;;;;;;1031222;28;20050;-74
2022/10/13 00:22:53;;;;;;;12.40;4.63;;;;;;;;;;1027416;28;20117;-74
2022/10/13 00:23:24;;;;;;;13.80;4.93;;;;;;;;;;1031292;28;20031;-74
2022/10/13 00:23:55;;;;;;;21.23;5.18;;;;;;;;;;1031006;28;20033;-74
2022/10/13 00:24:25;;;;;;;12.27;3.80;;;;;;;;;;1031112;28;20522;-75
2022/10/13 00:24:56;;;;;;;12.13;3.80;;;;;;;;;;1031648;28;20033;-75
2022/10/13 00:25:26;;;;;;;13.70;4.70;;;;;;;;;;1031594;28;20072;-75
2022/10/13 00:25:57;;;;;;;11.65;4.13;;;;;;;;;;1031838;28;20044;-75
2022/10/13 00:26:27;;;;;;;17.77;6.47;;;;;;;;;;1031568;28;20061;-75
2022/10/13 00:26:58;;;;;;;27.70;10.45;;;;;;;;;;1031594;28;20118;-75
2022/10/13 00:27:28;;;;;;;23.13;9.85;;;;;;;;;;1031389;28;20030;-75
2022/10/13 00:27:59;;;;;;;31.55;15.45;;;;;;;;;;1031274;28;20853;-75
2022/10/13 00:28:30;;;;;;;40.75;17.70;;;;;;;;;;1031673;28;20467;-75
2022/10/13 00:29:00;;;;;;;51.42;16.45;;;;;;;;;;1031696;28;20026;-75
2022/10/13 00:29:31;;;;;;;41.75;14.07;;;;;;;;;;1031599;28;20053;-75
2022/10/13 00:30:01;;;;;;;30.83;13.55;;;;;;;;;;1031735;28;20429;-75
2022/10/13 00:30:33;;;;;;;37.40;12.07;;;;;;;;;;1031649;28;20414;-75
2022/10/13 00:31:13;;;;;;;42.47;17.10;;;;;;;;;;1031683;28;20232;-75
2022/10/13 00:31:43;;;;;;;;;;;;;;;;;;1032132;28;20030;-74
2022/10/13 00:32:14;;;;;;;30.17;12.13;;;;;;;;;;1031545;28;19913;-74
2022/10/13 00:32:45;;;;;;;27.23;11.15;;;;;;;;;;1031216;28;20034;-74
2022/10/13 00:33:15;;;;;;;47.83;13.55;;;;;;;;;;1022229;28;20050;-75
2022/10/13 00:33:46;;;;;;;27.95;8.55;;;;;;;;;;1031309;28;20030;-75
2022/10/13 00:34:17;;;;;;;19.13;8.85;;;;;;;;;;1030762;28;20127;-75
2022/10/13 00:34:47;;;;;;;29.67;10.23;;;;;;;;;;1031593;28;20018;-75
2022/10/13 00:35:18;;;;;;;23.38;10.40;;;;;;;;;;1030834;28;20034;-75
2022/10/13 00:35:48;;;;;;;33.83;12.90;;;;;;;;;;1031521;28;20049;-75
2022/10/13 00:36:21;;;;;;;25.60;11.98;;;;;;;;;;1031332;28;20089;-75
2022/10/13 00:36:51;;;;;;;32.45;11.30;;;;;;;;;;1031224;28;20479;-75
2022/10/13 00:37:22;;;;;;;39.58;10.45;;;;;;;;;;1030878;28;20022;-75
2022/10/13 00:37:52;;;;;;;29.27;12.20;;;;;;;;;;1031367;28;20053;-75
2022/10/13 00:38:23;;;;;;;43.88;17.27;;;;;;;;;;1031509;28;20026;-74
2022/10/13 00:38:53;;;;;;;34.55;16.33;;;;;;;;;;1031539;28;20493;-75
2022/10/13 00:39:24;;;;;;;51.13;22.75;;;;;;;;;;1031157;28;20066;-75
2022/10/13 00:39:55;;;;;;;71.00;31.63;;;;;;;;;;1031283;28;20041;-75
2022/10/13 00:40:25;;;;;;;78.15;35.13;;;;;;;;;;1031221;28;20018;-77
2022/10/13 00:40:56;;;;;;;88.88;40.40;;;;;;;;;;1031504;28;20030;-75
2022/10/13 00:41:27;;;;;;;117.95;56.83;;;;;;;;;;1031120;28;20030;-75
2022/10/13 00:41:58;;;;;;;106.93;50.40;;;;;;;;;;1031322;28;20470;-75
2022/10/13 00:42:28;;;;;;;99.18;48.10;;;;;;;;;;1031103;28;20032;-75
2022/10/13 00:42:59;;;;;;;79.53;36.67;;;;;;;;;;1031278;28;20490;-74
2022/10/13 00:43:48;;;;;;;69.22;33.08;;;;;;;;;;1031183;28;20455;-75
2022/10/13 00:44:37;;;;;;;48.25;23.73;;;;;;;;;;1031006;28;20111;-75
2022/10/13 00:45:17;;;;;;;46.72;19.70;;;;;;;;;;1031132;28;20038;-75
2022/10/13 00:45:49;;;;;;;24.60;12.55;;;;;;;;;;1029820;28;20018;-75
2022/10/13 00:46:21;;;;;;;25.65;11.95;;;;;;;;;;1031272;28;20518;-75
2022/10/13 00:46:51;;;;;;;30.17;13.32;;;;;;;;;;1029770;28;20030;-75
2022/10/13 00:47:22;;;;;;;22.42;9.95;;;;;;;;;;1030626;28;20387;-74
2022/10/13 00:47:55;;;;;;;14.93;6.63;;;;;;;;;;1030775;28;20029;-74
2022/10/13 00:48:29;;;;;;;18.85;8.82;;;;;;;;;;1030853;28;20483;-75
2022/10/13 00:49:07;;;;;;;16.10;7.22;;;;;;;;;;1030816;28;20030;-75
2022/10/13 00:49:38;;;;;;;24.40;9.27;;;;;;;;;;1031558;28;20073;-75
2022/10/13 00:50:10;;;;;;;20.02;8.05;;;;;;;;;;1030686;28;20601;-75
2022/10/13 00:50:41;;;;;;;16.65;7.82;;;;;;;;;;1030968;28;20414;-75
2022/10/13 00:51:13;;;;;;;16.35;6.43;;;;;;;;;;1031138;28;20018;-75
2022/10/13 00:51:46;;;;;;;11.23;4.68;;;;;;;;;;1030856;28;20069;-75
2022/10/13 00:52:16;;;;;;;19.00;6.88;;;;;;;;;;1029921;28;20022;-75
2022/10/13 00:52:48;;;;;;;12.68;6.35;;;;;;;;;;1028837;28;20019;-74
2022/10/13 00:53:20;;;;;;;13.13;7.18;;;;;;;;;;1029018;28;20412;-75
2022/10/13 00:53:51;;;;;;;11.93;5.60;;;;;;;;;;1030335;28;20109;-75
2022/10/13 00:54:23;;;;;;;20.85;7.78;;;;;;;;;;1027417;28;20177;-75
2022/10/13 00:54:55;;;;;;;17.13;9.00;;;;;;;;;;1031152;28;20033;-75
2022/10/13 00:55:28;;;;;;;31.30;10.48;;;;;;;;;;1029988;28;20049;-75
2022/10/13 00:55:59;;;;;;;21.55;9.02;;;;;;;;;;1030516;28;20473;-75
2022/10/13 00:56:30;;;;;;;25.38;9.73;;;;;;;;;;1029770;28;20157;-75
2022/10/13 00:57:02;;;;;;;22.30;8.10;;;;;;;;;;1026976;28;20026;-74
2022/10/13 00:57:32;;;;;;;32.35;7.20;;;;;;;;;;1026639;28;20035;-75
2022/10/13 00:58:04;;;;;;;17.88;7.35;;;;;;;;;;1023319;28;20019;-75
2022/10/13 00:58:36;;;;;;;30.65;7.95;;;;;;;;;;1029261;28;20629;-75
2022/10/13 00:59:12;;;;;;;24.92;7.15;;;;;;;;;;1032961;28;20049;-75
2022/10/13 00:59:43;;;;;;;28.17;7.97;;;;;;;;;;1032187;28;20426;-75
2022/10/13 01:00:13;;;;;;;43.00;9.43;;;;;;;;;;1031044;28;20027;-75
2022/10/13 01:00:45;;;;;;;44.80;9.75;;;;;;;;;;1031280;28;20073;-74
2022/10/13 01:01:16;;;;;;;35.45;11.32;;;;;;;;;;1031257;28;20025;-75
2022/10/13 01:01:46;;;;;;;31.63;9.32;;;;;;;;;;1030658;28;20025;-75
2022/10/13 01:02:17;;;;;;;49.88;8.60;;;;;;;;;;1030709;28;20037;-75
2022/10/13 01:02:47;;;;;;;63.88;9.02;;;;;;;;;;1031006;28;20022;-75
2022/10/13 01:03:19;;;;;;;33.70;8.65;;;;;;;;;;1026094;28;20039;-75
2022/10/13 01:03:49;;;;;;;75.78;10.77;;;;;;;;;;1024558;28;20446;-75
2022/10/13 01:04:22;;;;;;;39.08;9.30;;;;;;;;;;1026060;28;20023;-75
2022/10/13 01:04:52;;;;;;;39.30;8.73;;;;;;;;;;1030109;28;20036;-75
2022/10/13 01:05:24;;;;;;;51.85;10.13;;;;;;;;;;1030796;28;20026;-75
2022/10/13 01:05:56;;;;;;;52.35;9.93;;;;;;;;;;1029395;28;20040;-75
2022/10/13 01:06:26;;;;;;;56.80;10.50;;;;;;;;;;1030545;28;20108;-75
2022/10/13 01:06:57;;;;;;;40.85;10.73;;;;;;;;;;1030236;28;20033;-75
2022/10/13 01:07:27;;;;;;;53.13;9.90;;;;;;;;;;1030417;28;20026;-74
2022/10/13 01:07:58;;;;;;;62.33;10.55;;;;;;;;;;1030135;28;20463;-74
2022/10/13 01:08:29;;;;;;;41.95;11.32;;;;;;;;;;1026191;28;20549;-75
2022/10/13 01:09:00;;;;;;;36.55;12.27;;;;;;;;;;1026914;28;20066;-75
2022/10/13 01:09:36;;;;;;;28.58;9.45;;;;;;;;;;1030213;28;20026;-75
2022/10/13 01:10:07;;;;;;;41.03;9.18;;;;;;;;;;1026844;28;20439;-75
2022/10/13 01:10:43;;;;;;;35.67;13.35;;;;;;;;;;1030578;28;20027;-75
2022/10/13 01:11:16;;;;;;;31.70;11.70;;;;;;;;;;1030568;28;20110;-75
2022/10/13 01:12:13;;;;;;;33.97;11.60;;;;;;;;;;1029442;28;20022;-75
2022/10/13 01:12:56;;;;;;;32.40;10.95;;;;;;;;;;1018272;29;20116;-75
2022/10/13 01:13:26;;;;;;;45.17;14.55;;;;;;;;;;1024585;28;20118;-75
2022/10/13 01:14:01;;;;;;;47.90;15.32;;;;;;;;;;1031150;28;20563;-75
2022/10/13 01:14:41;;;;;;;41.90;15.90;;;;;;;;;;1030288;28;20061;-75
2022/10/13 01:15:17;;;;;;;72.68;21.52;;;;;;;;;;1030186;28;20105;-75
2022/10/13 01:15:47;;;;;;;63.00;20.23;;;;;;;;;;1030685;28;20022;-74
2022/10/13 01:16:25;;;;;;;65.78;20.52;;;;;;;;;;1030990;28;20217;-75
2022/10/13 01:17:15;;;;;;;61.08;18.85;;;;;;;;;;1029484;28;20446;-75
2022/10/13 01:18:04;;;;;;;53.60;15.38;;;;;;;;;;1030763;28;20034;-75
2022/10/13 01:18:43;;;;;;;49.05;14.85;;;;;;;;;;1030611;28;20034;-75
2022/10/13 01:19:32;;;;;;;58.80;16.88;;;;;;;;;;1029808;28;20075;-75
2022/10/13 01:20:15;;;;;;;97.40;27.60;;;;;;;;;;1031312;28;20030;-75
2022/10/13 01:20:54;;;;;;;94.57;30.52;;;;;;;;;;1030601;28;20032;-75
2022/10/13 01:21:32;;;;;;;118.78;37.08;;;;;;;;;;1030657;28;20585;-75
2022/10/13 01:22:05;;;;;;;68.82;23.85;;;;;;;;;;1031140;28;20124;-75
2022/10/13 01:22:51;;;;;;;80.57;25.05;;;;;;;;;;1030218;28;20034;-75
2022/10/13 01:23:40;;;;;;;72.22;26.17;;;;;;;;;;1029911;28;20015;-75
2022/10/13 01:24:13;;;;;;;129.55;39.72;;;;;;;;;;1028590;28;20034;-75
2022/10/13 01:24:44;;;;;;;87.75;35.22;;;;;;;;;;1027679;28;20034;-75
2022/10/13 01:25:17;;;;;;;163.45;48.95;;;;;;;;;;1027905;28;20046;-75
2022/10/13 01:25:48;;;;;;;154.43;46.25;;;;;;;;;;1028773;28;20181;-75
2022/10/13 01:26:27;;;;;;;144.20;47.35;;;;;;;;;;1031091;28;20042;-75
2022/10/13 01:27:11;;;;;;;146.50;48.90;;;;;;;;;;1030776;28;20030;-75
2022/10/13 01:28:13;;;;;;;144.45;42.90;;;;;;;;;;1030388;28;20165;-75
2022/10/13 01:29:02;;;;;;;106.30;36.92;;;;;;;;;;1018414;29;20023;-75
2022/10/13 01:29:39;;;;;;;90.03;28.27;;;;;;;;;;1018331;29;20500;-75
2022/10/13 01:30:19;;;;;;;40.08;17.80;;;;;;;;;;1029959;28;20837;-75
2022/10/13 01:31:02;;;;;;;66.85;22.25;;;;;;;;;;1029671;28;20598;-75
2022/10/13 01:31:50;;;;;;;40.58;14.88;;;;;;;;;;1030131;28;20034;-75
2022/10/13 01:32:28;;;;;;;76.65;25.60;;;;;;;;;;1030285;28;20062;-75
2022/10/13 01:33:12;;;;;;;83.15;23.83;;;;;;;;;;1030291;28;20549;-75
2022/10/13 01:33:48;;;;;;;66.18;22.08;;;;;;;;;;1026277;28;20527;-75
2022/10/13 01:34:19;;;;;;;36.75;13.18;;;;;;;;;;1028851;28;20498;-76
2022/10/13 01:34:58;;;;;;;54.05;16.30;;;;;;;;;;1026418;28;20438;-75
2022/10/13 01:35:38;;;;;;;31.98;13.30;;;;;;;;;;1026121;28;20053;-74
2022/10/13 01:36:26;;;;;;;31.63;13.80;;;;;;;;;;1026223;28;20027;-75
2022/10/13 01:37:13;;;;;;;24.75;7.60;;;;;;;;;;1025553;28;20515;-76
2022/10/13 01:37:46;;;;;;;26.42;8.60;;;;;;;;;;1032081;28;20112;-76
2022/10/13 01:38:25;;;;;;;32.53;8.77;;;;;;;;;;1034706;28;20489;-76
2022/10/13 01:39:02;;;;;;;22.50;9.45;;;;;;;;;;1033862;28;20607;-76
2022/10/13 01:39:43;;;;;;;29.40;11.07;;;;;;;;;;1032275;28;20499;-76
2022/10/13 01:40:18;;;;;;;24.80;8.02;;;;;;;;;;1030303;28;20101;-76
2022/10/13 01:40:54;;;;;;;27.95;8.60;;;;;;;;;;1026393;28;20480;-76
2022/10/13 01:41:33;;;;;;;19.38;7.85;;;;;;;;;;1025040;28;20475;-76
2022/10/13 01:42:12;;;;;;;29.42;9.93;;;;;;;;;;1027625;28;20054;-76
2022/10/13 01:42:47;;;;;;;24.48;8.93;;;;;;;;;;1030530;28;20589;-76
2022/10/13 01:43:40;;;;;;;29.15;10.05;;;;;;;;;;1028756;28;20045;-76
2022/10/13 01:44:20;;;;;;;33.60;10.75;;;;;;;;;;1025252;28;20023;-76
2022/10/13 01:44:51;;;;;;;33.22;8.60;;;;;;;;;;1030167;28;20030;-76
2022/10/13 01:45:24;;;;;;;33.30;8.55;;;;;;;;;;1028158;28;20022;-76
2022/10/13 01:46:14;;;;;;;30.73;7.93;;;;;;;;;;1026957;28;20058;-76
2022/10/13 01:46:46;;;;;;;24.90;8.02;;;;;;;;;;1029734;28;20030;-76
2022/10/13 01:47:17;;;;;;;30.42;8.73;;;;;;;;;;1029615;28;20027;-76
2022/10/13 01:47:49;;;;;;;17.27;7.88;;;;;;;;;;1031042;28;20117;-76
2022/10/13 01:48:19;;;;;;;33.15;8.48;;;;;;;;;;1030843;28;20037;-76
2022/10/13 01:48:52;;;;;;;28.98;8.30;;;;;;;;;;1030397;28;20109;-76
2022/10/13 01:49:25;;;;;;;42.10;8.60;;;;;;;;;;1029513;28;20035;-76
2022/10/13 01:49:56;;;;;;;46.35;9.05;;;;;;;;;;1030275;28;20081;-76
2022/10/13 01:50:27;;;;;;;28.85;8.88;;;;;;;;;;1029749;28;20437;-76
2022/10/13 01:50:58;;;;;;;28.73;6.53;;;;;;;;;;1026818;28;20022;-76
2022/10/13 01:51:30;;;;;;;56.15;8.30;;;;;;;;;;1029702;28;20080;-75
2022/10/13 01:52:03;;;;;;;25.48;6.95;;;;;;;;;;1030260;28;20619;-76
2022/10/13 01:52:36;;;;;;;25.30;10.60;;;;;;;;;;1029826;28;20484;-75
2022/10/13 01:53:07;;;;;;;19.77;6.80;;;;;;;;;;1030072;28;20041;-76
2022/10/13 01:53:38;;;;;;;14.70;6.13;;;;;;;;;;1028444;28;20031;-76
2022/10/13 01:54:09;;;;;;;21.75;8.68;;;;;;;;;;1030060;28;20027;-76
2022/10/13 01:54:39;;;;;;;44.10;7.97;;;;;;;;;;1029304;28;20506;-76
2022/10/13 01:55:11;;;;;;;40.53;6.30;;;;;;;;;;1029729;28;20030;-75
2022/10/13 01:55:49;;;;;;;34.13;8.45;;;;;;;;;;1029956;28;20077;-76
2022/10/13 01:56:23;;;;;;;23.15;8.05;;;;;;;;;;1030538;28;20081;-76
2022/10/13 01:56:54;;;;;;;28.60;6.38;;;;;;;;;;1028936;28;20026;-76
2022/10/13 01:57:35;;;;;;;25.42;6.93;;;;;;;;;;1028585;28;20779;-76
2022/10/13 01:58:09;;;;;;;23.73;5.85;;;;;;;;;;1030162;28;20131;-76
2022/10/13 01:58:40;;;;;;;20.00;6.60;;;;;;;;;;1029696;28;20034;-76
2022/10/13 01:59:12;;;;;;;24.60;5.80;;;;;;;;;;1029128;28;20560;-76
2022/10/13 01:59:43;;;;;;;30.00;6.93;;;;;;;;;;1029076;28;20033;-76
2022/10/13 02:00:15;;;;;;;26.77;8.93;;;;;;;;;;1030700;28;20414;-76
2022/10/13 02:00:53;;;;;;;25.17;8.15;;;;;;;;;;1027280;28;20038;-76
2022/10/13 02:01:42;;;;;;;28.73;7.82;;;;;;;;;;1028575;28;20129;-75
2022/10/13 02:02:17;;;;;;;16.67;6.97;;;;;;;;;;1030220;28;20019;-75
2022/10/13 02:03:06;;;;;;;30.17;6.25;;;;;;;;;;1031291;28;20335;-75
2022/10/13 02:03:43;;;;;;;27.38;7.80;;;;;;;;;;1030558;28;20023;-76
2022/10/13 02:04:14;;;;;;;28.10;9.18;;;;;;;;;;1030655;28;20018;-75
2022/10/13 02:04:52;;;;;;;20.70;6.82;;;;;;;;;;1031504;28;20026;-75
2022/10/13 02:05:23;;;;;;;21.85;7.68;;;;;;;;;;1030943;28;20025;-75
2022/10/13 02:06:17;;;;;;;22.15;7.13;;;;;;;;;;1031428;28;20105;-75
2022/10/13 02:07:06;;;;;;;23.52;8.20;;;;;;;;;;1031683;28;20023;-75
2022/10/13 02:07:48;;;;;;;27.23;7.78;;;;;;;;;;1031120;28;20397;-75
2022/10/13 02:08:22;;;;;;;40.97;7.28;;;;;;;;;;1033662;28;20120;-75
2022/10/13 02:08:59;;;;;;;22.85;7.25;;;;;;;;;;1031055;28;20030;-75
2022/10/13 02:09:34;;;;;;;38.35;7.75;;;;;;;;;;1034156;28;20405;-76
2022/10/13 02:10:11;;;;;;;25.75;6.95;;;;;;;;;;1031251;28;20065;-76
2022/10/13 02:10:45;;;;;;;32.25;6.50;;;;;;;;;;1028360;28;20481;-75
2022/10/13 02:11:18;;;;;;;30.75;7.18;;;;;;;;;;1028935;28;20038;-75
2022/10/13 02:11:51;;;;;;;22.00;6.25;;;;;;;;;;1030293;28;20037;-75
2022/10/13 02:12:42;;;;;;;20.15;6.95;;;;;;;;;;1030598;28;20022;-76
2022/10/13 02:13:15;;;;;;;28.23;7.55;;;;;;;;;;1015758;28;20032;-76
2022/10/13 02:14:00;;;;;;;24.48;8.48;;;;;;;;;;1031706;28;20031;-75
2022/10/13 02:14:32;;;;;;;17.25;6.03;;;;;;;;;;1030247;28;20616;-75
2022/10/13 02:15:03;;;;;;;21.30;6.60;;;;;;;;;;1031669;28;20022;-75
2022/10/13 02:15:41;;;;;;;31.55;7.88;;;;;;;;;;1031514;28;20115;-76
2022/10/13 02:16:13;;;;;;;30.35;8.07;;;;;;;;;;1030646;28;20030;-75
2022/10/13 02:16:44;;;;;;;12.50;6.63;;;;;;;;;;1031491;28;20030;-75
2022/10/13 02:17:15;;;;;;;23.77;6.97;;;;;;;;;;1031641;28;20030;-75
2022/10/13 02:17:46;;;;;;;25.42;8.10;;;;;;;;;;1031275;28;20434;-75
2022/10/13 02:18:19;;;;;;;21.60;7.00;;;;;;;;;;1030920;28;20033;-75
2022/10/13 02:18:50;;;;;;;20.45;5.93;;;;;;;;;;1031919;28;20485;-75
2022/10/13 02:19:21;;;;;;;36.33;8.85;;;;;;;;;;1031379;28;20022;-75
2022/10/13 02:19:55;;;;;;;44.88;8.45;;;;;;;;;;1030439;28;20081;-76
2022/10/13 02:20:26;;;;;;;18.13;5.45;;;;;;;;;;1029594;28;20113;-75
2022/10/13 02:20:57;;;;;;;23.77;6.75;;;;;;;;;;1031061;28;20034;-76
2022/10/13 02:21:27;;;;;;;11.20;5.85;;;;;;;;;;1031691;28;20057;-75
2022/10/13 02:21:58;;;;;;;16.42;6.40;;;;;;;;;;1031399;28;20045;-76
2022/10/13 02:22:32;;;;;;;31.80;8.15;;;;;;;;;;1033049;28;20033;-75
2022/10/13 02:23:06;;;;;;;16.98;5.53;;;;;;;;;;1030915;28;20034;-75
2022/10/13 02:23:37;;;;;;;31.52;7.90;;;;;;;;;;1032504;28;20041;-75
2022/10/13 02:24:07;;;;;;;19.33;6.82;;;;;;;;;;1031740;28;20557;-76
2022/10/13 02:24:38;;;;;;;34.88;9.93;;;;;;;;;;1031061;28;20030;-76
2022/10/13 02:25:09;;;;;;;33.88;8.95;;;;;;;;;;1030961;28;20635;-75
2022/10/13 02:25:40;;;;;;;26.98;8.85;;;;;;;;;;1031867;28;20033;-76
2022/10/13 02:26:12;;;;;;;16.63;8.13;;;;;;;;;;1031257;28;20026;-76
2022/10/13 02:26:42;;;;;;;48.88;11.02;;;;;;;;;;1031673;28;20014;-76
2022/10/13 02:27:13;;;;;;;66.35;9.32;;;;;;;;;;1027913;28;20031;-76
2022/10/13 02:27:43;;;;;;;33.10;9.18;;;;;;;;;;1027986;28;20077;-76
2022/10/13 02:28:14;;;;;;;31.38;6.63;;;;;;;;;;1027580;28;20035;-76
2022/10/13 02:28:45;;;;;;;24.75;7.38;;;;;;;;;;1031763;28;20027;-76
2022/10/13 02:29:16;;;;;;;52.70;8.27;;;;;;;;;;1031901;28;20041;-76
2022/10/13 02:29:51;;;;;;;34.58;7.38;;;;;;;;;;1031190;28;20022;-76
2022/10/13 02:30:22;;;;;;;41.25;7.93;;;;;;;;;;1029370;28;20093;-76
2022/10/13 02:30:53;;;;;;;25.23;7.65;;;;;;;;;;1030652;28;20033;-76
2022/10/13 02:31:23;;;;;;;29.20;10.95;;;;;;;;;;1027335;28;20026;-76
2022/10/13 02:31:54;;;;;;;35.70;9.57;;;;;;;;;;1029334;28;20035;-76
2022/10/13 02:32:25;;;;;;;29.02;10.35;;;;;;;;;;1032055;28;20085;-76
2022/10/13 02:32:55;;;;;;;36.25;9.48;;;;;;;;;;1031891;28;20049;-76
2022/10/13 02:33:26;;;;;;;34.65;9.52;;;;;;;;;;1031494;28;20022;-76
2022/10/13 02:33:57;;;;;;;19.98;7.95;;;;;;;;;;1032414;28;20037;-76
2022/10/13 02:34:27;;;;;;;35.28;10.38;;;;;;;;;;1031512;28;20498;-75
2022/10/13 02:34:58;;;;;;;44.97;7.72;;;;;;;;;;1027688;28;20053;-76
2022/10/13 02:35:29;;;;;;;27.90;7.35;;;;;;;;;;1030897;28;21201;-76
2022/10/13 02:36:00;;;;;;;44.03;7.10;;;;;;;;;;1028013;28;20757;-76
2022/10/13 02:36:31;;;;;;;20.38;8.45;;;;;;;;;;1028485;28;20034;-75
2022/10/13 02:37:01;;;;;;;25.55;7.45;;;;;;;;;;1031137;28;20133;-76
2022/10/13 02:37:32;;;;;;;39.85;7.72;;;;;;;;;;1030981;28;20378;-76
2022/10/13 02:38:03;;;;;;;43.90;9.52;;;;;;;;;;1031259;28;20018;-76
2022/10/13 02:38:34;;;;;;;33.28;7.60;;;;;;;;;;1029503;28;20098;-76
2022/10/13 02:39:06;;;;;;;48.88;7.68;;;;;;;;;;1030358;28;20069;-76
2022/10/13 02:39:37;;;;;;;18.92;8.38;;;;;;;;;;1030434;28;20023;-76
2022/10/13 02:40:08;;;;;;;26.83;7.60;;;;;;;;;;1026007;28;20030;-76
2022/10/13 02:40:38;;;;;;;41.88;9.05;;;;;;;;;;1026612;28;20022;-76
2022/10/13 02:41:09;;;;;;;28.33;7.68;;;;;;;;;;1026502;28;20022;-76
2022/10/13 02:41:40;;;;;;;32.35;7.35;;;;;;;;;;1025255;28;20034;-76
2022/10/13 02:42:10;;;;;;;33.78;7.50;;;;;;;;;;1026269;28;20026;-76
2022/10/13 02:42:44;;;;;;;45.20;8.57;;;;;;;;;;1027238;28;20563;-76
2022/10/13 02:43:14;;;;;;;27.75;7.85;;;;;;;;;;1026521;28;20118;-76
2022/10/13 02:43:45;;;;;;;31.52;6.90;;;;;;;;;;1025228;28;20107;-76
2022/10/13 02:44:16;;;;;;;28.20;8.20;;;;;;;;;;1027059;28;20105;-76
2022/10/13 02:44:46;;;;;;;31.60;7.47;;;;;;;;;;1027208;28;20159;-76
2022/10/13 02:45:17;;;;;;;37.40;8.43;;;;;;;;;;1027157;28;20101;-76
2022/10/13 02:45:47;;;;;;;45.97;10.15;;;;;;;;;;1028528;28;20068;-76
2022/10/13 02:46:18;;;;;;;44.50;12.07;;;;;;;;;;1025508;28;20134;-76
2022/10/13 02:46:49;;;;;;;51.45;11.48;;;;;;;;;;1030462;28;20033;-76
2022/10/13 02:47:19;;;;;;;30.65;11.43;;;;;;;;;;1030853;28;20089;-76
2022/10/13 02:47:50;;;;;;;26.20;11.77;;;;;;;;;;1030655;28;20467;-76
2022/10/13 02:48:20;;;;;;;31.48;9.80;;;;;;;;;;1030806;28;20026;-76
2022/10/13 02:48:51;;;;;;;19.80;8.95;;;;;;;;;;1030328;28;20408;-76
2022/10/13 02:49:22;;;;;;;30.83;8.45;;;;;;;;;;1030762;28;20041;-75
2022/10/13 02:49:52;;;;;;;36.92;7.03;;;;;;;;;;1031715;28;20407;-75
2022/10/13 02:50:23;;;;;;;23.95;6.75;;;;;;;;;;1029404;28;20030;-75
2022/10/13 02:50:53;;;;;;;20.67;6.22;;;;;;;;;;1029866;28;20090;-75
2022/10/13 02:51:24;;;;;;;27.55;7.18;;;;;;;;;;1029535;28;20034;-75
2022/10/13 02:51:54;;;;;;;20.27;5.85;;;;;;;;;;1030148;28;20201;-75
2022/10/13 02:52:25;;;;;;;21.92;4.90;;;;;;;;;;1027182;28;20066;-75
2022/10/13 02:52:56;;;;;;;21.98;6.75;;;;;;;;;;1026604;28;20490;-75
2022/10/13 02:53:26;;;;;;;25.02;8.45;;;;;;;;;;1027938;28;20109;-75
2022/10/13 02:53:57;;;;;;;9.02;4.35;;;;;;;;;;1029379;28;20610;-75
2022/10/13 02:54:27;;;;;;;26.73;6.57;;;;;;;;;;1030192;28;20514;-75
2022/10/13 02:54:58;;;;;;;14.80;4.25;;;;;;;;;;1030682;28;20402;-75
2022/10/13 02:55:29;;;;;;;9.68;4.57;;;;;;;;;;1029970;28;20033;-75
2022/10/13 02:55:59;;;;;;;28.80;6.53;;;;;;;;;;1030025;28;20018;-75
2022/10/13 02:56:30;;;;;;;21.92;5.93;;;;;;;;;;1029460;28;20802;-75
2022/10/13 02:57:00;;;;;;;14.43;6.40;;;;;;;;;;1027205;28;20413;-75
2022/10/13 02:57:31;;;;;;;16.10;5.65;;;;;;;;;;1027182;28;20487;-75
2022/10/13 02:58:02;;;;;;;21.55;5.22;;;;;;;;;;1027624;28;20129;-76
2022/10/13 02:58:33;;;;;;;12.02;4.70;;;;;;;;;;1030975;28;20018;-76
2022/10/13 02:59:04;;;;;;;16.55;5.32;;;;;;;;;;1030808;28;20030;-76
2022/10/13 02:59:34;;;;;;;14.18;4.38;;;;;;;;;;1030253;28;20500;-75
2022/10/13 03:00:06;;;;;;;15.77;5.32;;;;;;;;;;1026664;28;20544;-75
2022/10/13 03:00:38;;;;;;;14.98;5.13;;;;;;;;;;1030713;28;20041;-75
2022/10/13 03:01:10;;;;;;;14.15;5.53;;;;;;;;;;1030579;28;20026;-75
2022/10/13 03:01:43;;;;;;;21.95;6.75;;;;;;;;;;1028484;28;20513;-76
2022/10/13 03:02:13;;;;;;;30.10;5.40;;;;;;;;;;1029767;28;20525;-76
2022/10/13 03:02:44;;;;;;;37.08;6.20;;;;;;;;;;1030466;28;20069;-76
2022/10/13 03:03:15;;;;;;;19.45;5.00;;;;;;;;;;1030023;28;20030;-75
2022/10/13 03:03:45;;;;;;;28.88;6.25;;;;;;;;;;1029213;28;20033;-76
2022/10/13 03:04:16;;;;;;;14.95;5.35;;;;;;;;;;1030087;28;20080;-75
2022/10/13 03:04:47;;;;;;;20.17;6.93;;;;;;;;;;1029485;28;20471;-76
2022/10/13 03:05:18;;;;;;;16.70;5.85;;;;;;;;;;1029169;28;20046;-75
2022/10/13 03:05:49;;;;;;;23.45;5.93;;;;;;;;;;1030728;28;20038;-75
2022/10/13 03:06:20;;;;;;;20.08;5.28;;;;;;;;;;1030401;28;20032;-76
2022/10/13 03:06:51;;;;;;;13.35;5.63;;;;;;;;;;1031196;28;20037;-76
2022/10/13 03:07:22;;;;;;;23.05;4.53;;;;;;;;;;1023795;28;20033;-75
2022/10/13 03:07:52;;;;;;;19.02;4.78;;;;;;;;;;1024925;28;20053;-76
2022/10/13 03:08:23;;;;;;;28.08;6.28;;;;;;;;;;1024478;28;20122;-75
2022/10/13 03:08:54;;;;;;;18.33;5.55;;;;;;;;;;1022883;28;20121;-76
2022/10/13 03:09:25;;;;;;;40.50;6.55;;;;;;;;;;1025561;28;20526;-77
2022/10/13 03:09:56;;;;;;;34.03;6.63;;;;;;;;;;1031289;28;20145;-78
2022/10/13 03:10:27;;;;;;;43.65;7.70;;;;;;;;;;1030349;28;20041;-77
2022/10/13 03:10:57;;;;;;;19.35;5.38;;;;;;;;;;1027158;28;20038;-77
2022/10/13 03:11:29;;;;;;;21.00;5.30;;;;;;;;;;1028521;28;20030;-77
2022/10/13 03:12:00;;;;;;;31.42;7.57;;;;;;;;;;1025992;28;20035;-77
2022/10/13 03:12:31;;;;;;;44.42;7.30;;;;;;;;;;1024459;28;20039;-77
2022/10/13 03:13:02;;;;;;;20.25;6.45;;;;;;;;;;1024780;28;20022;-77
2022/10/13 03:13:33;;;;;;;43.72;7.55;;;;;;;;;;1023661;28;20113;-77
2022/10/13 03:14:03;;;;;;;19.30;5.70;;;;;;;;;;1030596;28;20478;-77
2022/10/13 03:14:34;;;;;;;15.70;5.53;;;;;;;;;;1031361;28;20132;-76
2022/10/13 03:15:05;;;;;;;31.38;6.07;;;;;;;;;;1029706;28;20026;-76